Time;durP1;ratioP1;P1;durP2;ratioP2;P2;SDS_P1;SDS_P2;PMS_P1;PMS_P2;Temp;Humidity;BMP_temperature;BMP_pressure;BME280_temperature;BME280_humidity;BME280_pressure;Samples;Min_cycle;Max_cycle;Signal;HPM_P1;HPM_P2
2024/01/20 00:00:22;;;;;;;46.72;15.45;;;;;;;-0.52;100.00;102570.94;5117214;28;20048;-80
2024/01/20 00:02:49;;;;;;;41.08;16.90;;;;;;;-0.51;100.00;102580.56;5115622;28;20036;-81
2024/01/20 00:05:15;;;;;;;39.45;14.25;;;;;;;-0.49;100.00;102577.19;5116829;28;20051;-80
2024/01/20 00:07:40;;;;;;;39.30;14.95;;;;;;;-0.51;100.00;102587.47;5116871;28;20384;-80
2024/01/20 00:10:12;;;;;;;42.22;17.10;;;;;;;-0.56;100.00;102567.97;5116781;28;20028;-80
2024/01/20 00:12:39;;;;;;;43.75;17.90;;;;;;;-0.54;100.00;102582.00;5115751;28;20035;-80
2024/01/20 00:15:08;;;;;;;38.85;14.35;;;;;;;-0.50;100.00;102591.88;5116537;28;20081;-80
2024/01/20 00:17:35;;;;;;;38.45;15.35;;;;;;;-0.61;100.00;102559.81;5098515;28;20074;-80
2024/01/20 00:20:00;;;;;;;33.63;14.23;;;;;;;-0.46;100.00;102586.16;5115109;28;20032;-80
2024/01/20 00:22:26;;;;;;;34.17;14.43;;;;;;;-0.50;100.00;102573.69;5116581;28;20075;-81
2024/01/20 00:24:52;;;;;;;33.53;14.48;;;;;;;-0.49;100.00;102579.78;5116325;28;20028;-81
2024/01/20 00:27:17;;;;;;;38.45;14.95;;;;;;;-0.57;100.00;102568.75;5116457;28;20024;-81
2024/01/20 00:29:43;;;;;;;40.90;14.55;;;;;;;-0.53;100.00;102574.31;5115223;28;20076;-80
2024/01/20 00:32:08;;;;;;;39.67;15.05;;;;;;;-0.47;100.00;102592.13;5114852;28;20063;-80
2024/01/20 00:34:33;;;;;;;33.70;12.95;;;;;;;-0.53;100.00;102560.44;5115419;28;20043;-80
2024/01/20 00:37:03;;;;;;;43.03;14.25;;;;;;;-0.45;100.00;102572.38;5097151;28;20385;-80
2024/01/20 00:39:28;;;;;;;36.90;13.50;;;;;;;-0.46;100.00;102567.97;5116136;28;20063;-80
2024/01/20 00:41:54;;;;;;;41.58;17.80;;;;;;;-0.49;100.00;102556.41;5115035;28;20077;-80
2024/01/20 00:44:19;;;;;;;37.67;14.68;;;;;;;-0.38;100.00;102584.19;5114562;28;20028;-80
2024/01/20 00:46:44;;;;;;;30.25;12.82;;;;;;;-0.44;100.00;102571.59;5114863;28;20035;-81
2024/01/20 00:49:10;;;;;;;33.92;14.15;;;;;;;-0.61;100.00;102556.31;5114807;28;20055;-81
2024/01/20 00:51:35;;;;;;;42.20;16.02;;;;;;;-0.54;100.00;102576.81;5116013;28;20031;-79
2024/01/20 00:54:00;;;;;;;41.25;13.75;;;;;;;-0.56;100.00;102580.94;5115915;28;20126;-80
2024/01/20 00:56:26;;;;;;;32.85;12.75;;;;;;;-0.72;100.00;102542.44;5115725;28;20540;-80
2024/01/20 00:58:51;;;;;;;33.45;12.77;;;;;;;-0.64;100.00;102563.81;5114614;28;20023;-80
2024/01/20 01:01:17;;;;;;;31.48;11.77;;;;;;;-0.57;100.00;102577.44;5097352;28;20118;-80
2024/01/20 01:03:42;;;;;;;36.63;13.05;;;;;;;-0.52;100.00;102568.34;5115169;28;20057;-80
2024/01/20 01:06:08;;;;;;;34.50;13.18;;;;;;;-0.60;100.00;102561.63;5115798;28;20035;-80
2024/01/20 01:08:34;;;;;;;33.28;14.32;;;;;;;-0.48;100.00;102577.31;5114011;28;20035;-80
2024/01/20 01:11:00;;;;;;;33.80;12.77;;;;;;;-0.52;100.00;102570.94;5115550;28;20046;-79
2024/01/20 01:13:25;;;;;;;36.58;13.05;;;;;;;-0.53;100.00;102565.63;5115336;28;20032;-81
2024/01/20 01:15:51;;;;;;;38.40;14.13;;;;;;;-0.41;100.00;102574.44;5115391;28;20037;-81
2024/01/20 01:18:16;;;;;;;36.97;15.05;;;;;;;-0.49;100.00;102559.00;5114222;28;20036;-80
2024/01/20 01:20:42;;;;;;;33.92;14.20;;;;;;;-0.47;100.00;102578.22;5097039;28;20036;-80
2024/01/20 01:23:07;;;;;;;36.90;13.85;;;;;;;-0.54;100.00;102575.13;5113995;28;20028;-81
2024/01/20 01:25:33;;;;;;;37.20;13.85;;;;;;;-0.62;100.00;102565.78;5113638;28;20418;-80
2024/01/20 01:27:58;;;;;;;33.00;12.15;;;;;;;-0.52;100.00;102580.44;5113748;28;20043;-81
2024/01/20 01:30:24;;;;;;;33.63;13.52;;;;;;;-0.61;100.00;102562.41;5115184;28;20032;-80
2024/01/20 01:32:49;;;;;;;37.80;13.90;;;;;;;-0.52;100.00;102585.63;5115233;28;20459;-80
2024/01/20 01:35:14;;;;;;;31.45;12.60;;;;;;;-0.70;100.00;102572.00;5096866;28;20032;-80
2024/01/20 01:37:40;;;;;;;36.78;14.13;;;;;;;-0.70;100.00;102569.41;5113701;28;20476;-80
2024/01/20 01:40:06;;;;;;;28.80;13.18;;;;;;;-0.73;100.00;102565.66;5113674;28;20043;-80
2024/01/20 01:42:33;;;;;;;32.92;12.18;;;;;;;-0.59;100.00;102601.47;5114808;28;20055;-80
2024/01/20 01:44:58;;;;;;;34.75;13.02;;;;;;;-0.59;100.00;102599.78;5112977;28;20435;-80
2024/01/20 01:47:23;;;;;;;24.95;10.10;;;;;;;-0.56;100.00;102602.66;5113573;28;20119;-80
2024/01/20 01:49:49;;;;;;;34.25;13.55;;;;;;;-0.61;100.00;102590.94;5114657;28;20063;-80
2024/01/20 01:52:14;;;;;;;28.50;12.02;;;;;;;-0.76;100.00;102571.53;5113381;28;20084;-80
2024/01/20 01:54:40;;;;;;;31.00;13.30;;;;;;;-0.58;100.00;102617.19;5114697;27;20036;-80
2024/01/20 01:57:06;;;;;;;32.67;13.43;;;;;;;-0.56;100.00;102614.69;5114299;28;20032;-80
2024/01/20 01:59:33;;;;;;;32.65;13.15;;;;;;;-0.56;100.00;102615.63;5096472;28;20039;-79
2024/01/20 02:01:58;;;;;;;30.48;12.90;;;;;;;-0.53;100.00;102625.34;5113146;28;20046;-79
2024/01/20 02:04:24;;;;;;;37.05;11.90;;;;;;;-0.55;100.00;102620.03;5095570;28;20051;-79
2024/01/20 02:06:50;;;;;;;32.28;13.20;;;;;;;-0.52;100.00;102627.16;5114452;28;20028;-80
2024/01/20 02:09:17;;;;;;;33.95;13.68;;;;;;;-0.52;100.00;102630.66;5114396;28;20076;-80
2024/01/20 02:11:43;;;;;;;28.92;11.35;;;;;;;-0.46;100.00;102632.88;5114309;28;20027;-80
2024/01/20 02:14:10;;;;;;;31.90;13.88;;;;;;;-0.48;100.00;102633.53;5113951;28;20462;-80
2024/01/20 02:16:35;;;;;;;27.77;11.43;;;;;;;-0.46;100.00;102614.72;5113996;28;20067;-80
2024/01/20 02:19:04;;;;;;;31.80;13.20;;;;;;;-0.50;100.00;102628.22;5113719;28;20480;-80
2024/01/20 02:21:30;;;;;;;34.65;12.60;;;;;;;-0.57;100.00;102615.50;5113780;28;20036;-79
2024/01/20 02:23:58;;;;;;;36.83;13.18;;;;;;;-0.87;100.00;102569.69;5112539;28;20032;-82
2024/01/20 02:26:28;;;;;;;33.63;13.63;;;;;;;-0.70;100.00;102607.44;5114033;28;20460;-78
2024/01/20 02:28:53;;;;;;;32.08;13.82;;;;;;;-0.61;100.00;102616.91;5114366;28;20577;-82
2024/01/20 02:31:19;;;;;;;38.00;13.73;;;;;;;-0.74;100.00;102605.38;5112697;28;20130;-79
2024/01/20 02:33:44;;;;;;;26.85;11.93;;;;;;;-0.75;100.00;102609.66;5113994;28;20031;-78
2024/01/20 02:36:10;;;;;;;33.63;13.05;;;;;;;-0.76;100.00;102616.53;5114182;28;20114;-79
2024/01/20 02:38:35;;;;;;;29.35;12.80;;;;;;;-0.66;100.00;102632.88;5113855;28;20027;-78
2024/01/20 02:41:00;;;;;;;39.67;14.63;;;;;;;-0.70;100.00;102623.03;5113765;28;20122;-82
2024/01/20 02:43:26;;;;;;;32.17;13.15;;;;;;;-0.71;100.00;102621.22;5112234;28;20036;-79
2024/01/20 02:45:51;;;;;;;33.63;13.80;;;;;;;-0.77;100.00;102614.75;5113587;28;20035;-82
2024/01/20 02:48:17;;;;;;;29.50;11.77;;;;;;;-0.61;100.00;102632.50;5112519;28;20031;-79
2024/01/20 02:50:42;;;;;;;25.67;10.70;;;;;;;-0.61;100.00;102629.00;5113466;28;20065;-79
2024/01/20 02:53:07;;;;;;;32.47;13.50;;;;;;;-0.90;100.00;102588.53;5113629;28;20039;-79
2024/01/20 02:55:33;;;;;;;31.17;12.50;;;;;;;-0.64;100.00;102628.72;5095067;28;20478;-79
2024/01/20 02:57:58;;;;;;;34.65;13.27;;;;;;;-0.74;100.00;102607.97;5112391;28;20040;-81
2024/01/20 03:00:24;;;;;;;30.50;12.85;;;;;;;-0.71;100.00;102622.13;5112212;28;20063;-79
2024/01/20 03:02:49;;;;;;;36.03;14.65;;;;;;;-0.73;100.00;102622.75;5113310;28;20388;-79
2024/01/20 03:05:14;;;;;;;36.65;15.30;;;;;;;-0.88;100.00;102599.94;5113313;28;20043;-79
2024/01/20 03:07:40;;;;;;;32.83;13.43;;;;;;;-0.75;100.00;102633.03;5113232;28;20480;-79
2024/01/20 03:10:06;;;;;;;31.95;14.30;;;;;;;-0.80;100.00;102643.00;5095021;28;20039;-80
2024/01/20 03:12:31;;;;;;;32.17;13.15;;;;;;;-0.71;100.00;102652.38;5113263;28;20165;-79
2024/01/20 03:14:56;;;;;;;32.50;13.40;;;;;;;-0.94;100.00;102602.03;5113045;28;20040;-81
2024/01/20 03:17:22;;;;;;;29.63;12.77;;;;;;;-1.02;100.00;102584.88;5111929;28;20032;-80
2024/01/20 03:19:47;;;;;;;39.88;14.20;;;;;;;-0.76;100.00;102639.91;5111917;28;20573;-79
2024/01/20 03:22:13;;;;;;;33.22;12.90;;;;;;;-0.85;100.00;102615.78;5112958;28;20032;-80
2024/01/20 03:24:38;;;;;;;26.52;12.05;;;;;;;-0.79;100.00;102628.34;5113337;28;20055;-80
2024/01/20 03:27:04;;;;;;;32.05;13.45;;;;;;;-0.64;100.00;102657.28;5112050;28;20042;-82
2024/01/20 03:29:29;;;;;;;29.55;11.75;;;;;;;-0.65;100.00;102647.69;5112008;28;20027;-80
2024/01/20 03:31:54;;;;;;;33.35;13.50;;;;;;;-0.74;100.00;102633.94;5111893;28;20024;-80
2024/01/20 03:34:20;;;;;;;33.20;13.75;;;;;;;-0.69;100.00;102658.56;5113014;28;20032;-79
2024/01/20 03:36:46;;;;;;;32.60;13.65;;;;;;;-0.84;100.00;102629.66;5111845;28;20138;-80
2024/01/20 03:39:12;;;;;;;27.70;12.68;;;;;;;-0.72;100.00;102650.56;5095069;28;20036;-80
2024/01/20 03:41:37;;;;;;;35.20;15.80;;;;;;;-0.74;100.00;102652.09;5113293;28;20084;-80
2024/01/20 03:44:03;;;;;;;26.40;11.80;;;;;;;-0.70;100.00;102649.88;5111831;28;20028;-80
2024/01/20 03:46:28;;;;;;;29.67;12.43;;;;;;;-0.72;100.00;102654.06;5112874;28;20510;-80
2024/01/20 03:48:54;;;;;;;28.15;11.60;;;;;;;-0.84;100.00;102633.16;5112022;28;20031;-80
2024/01/20 03:51:22;;;;;;;32.42;13.20;;;;;;;-0.94;100.00;102616.66;5111801;28;20369;-80
2024/01/20 03:53:47;;;;;;;28.83;11.60;;;;;;;-0.83;100.00;102634.06;5113027;28;20062;-80
2024/01/20 03:56:13;;;;;;;34.83;14.30;;;;;;;-0.74;100.00;102655.59;5112861;28;20055;-80
2024/01/20 03:58:38;;;;;;;30.75;11.98;;;;;;;-0.81;100.00;102645.50;5112962;28;20122;-80
2024/01/20 04:01:04;;;;;;;30.20;13.23;;;;;;;-0.77;100.00;102651.06;5112941;28;20027;-80
2024/01/20 04:03:29;;;;;;;35.45;13.68;;;;;;;-0.74;100.00;102645.22;5111510;28;20042;-80
2024/01/20 04:05:55;;;;;;;28.02;12.52;;;;;;;-0.66;100.00;102657.16;5094128;28;20048;-80
2024/01/20 04:08:20;;;;;;;29.65;12.68;;;;;;;-0.70;100.00;102652.47;5111517;28;20578;-80
2024/01/20 04:10:45;;;;;;;25.15;11.80;;;;;;;-0.81;100.00;102641.22;5113615;28;20054;-80
2024/01/20 04:13:11;;;;;;;29.85;13.10;;;;;;;-0.71;100.00;102658.47;5116308;28;20035;-81
2024/01/20 04:15:36;;;;;;;30.50;12.50;;;;;;;-0.82;100.00;102631.56;5116028;28;20058;-79
2024/01/20 04:18:02;;;;;;;28.85;12.75;;;;;;;-0.67;100.00;102668.31;5115097;28;20391;-80
2024/01/20 04:20:27;;;;;;;27.88;11.35;;;;;;;-0.64;100.00;102654.69;5116792;28;20038;-79
2024/01/20 04:22:52;;;;;;;28.35;12.45;;;;;;;-0.79;100.00;102639.63;5116537;28;20469;-79
2024/01/20 04:25:18;;;;;;;34.65;12.75;;;;;;;-0.65;100.00;102661.56;5115331;28;20031;-79
2024/01/20 04:27:44;;;;;;;26.40;11.38;;;;;;;-0.83;100.00;102631.47;5116165;28;20028;-79
2024/01/20 04:30:13;;;;;;;34.50;12.68;;;;;;;-0.92;100.00;102620.31;5116284;28;20028;-80
2024/01/20 04:32:38;;;;;;;28.92;12.98;;;;;;;-0.61;100.00;102678.31;5116304;28;20032;-80
2024/01/20 04:35:07;;;;;;;26.73;11.50;;;;;;;-0.63;100.00;102677.28;5114896;28;20034;-79
2024/01/20 04:37:33;;;;;;;26.63;12.55;;;;;;;-0.81;100.00;102651.59;5116200;28;20638;-79
2024/01/20 04:40:00;;;;;;;31.55;11.57;;;;;;;-0.66;100.00;102682.22;5116080;28;20137;-80
2024/01/20 04:42:25;;;;;;;29.02;11.63;;;;;;;-0.64;100.00;102683.22;5114814;28;20024;-81
2024/01/20 04:44:50;;;;;;;27.23;11.82;;;;;;;-0.69;100.00;102688.03;5114741;28;20387;-81
2024/01/20 04:47:16;;;;;;;23.23;10.48;;;;;;;-0.77;100.00;102670.94;5097227;28;20110;-82
2024/01/20 04:49:41;;;;;;;27.55;12.05;;;;;;;-0.69;100.00;102680.25;5114655;28;20032;-80
2024/01/20 04:52:06;;;;;;;33.75;12.30;;;;;;;-0.66;100.00;102687.41;5114546;28;20467;-80
2024/01/20 04:54:32;;;;;;;30.15;12.02;;;;;;;-0.89;100.00;102654.31;5114603;28;20514;-80
2024/01/20 04:56:57;;;;;;;33.65;12.75;;;;;;;-0.66;100.00;102697.78;5115792;28;20499;-80
2024/01/20 04:59:24;;;;;;;30.02;13.43;;;;;;;-0.68;100.00;102687.28;5115799;28;20050;-80
2024/01/20 05:01:49;;;;;;;28.33;11.80;;;;;;;-0.79;100.00;102664.69;5114435;28;20036;-82
2024/01/20 05:04:15;;;;;;;28.80;12.63;;;;;;;-0.66;100.00;102688.31;5115372;28;20127;-80
2024/01/20 05:06:40;;;;;;;29.92;11.68;;;;;;;-0.96;100.00;102631.19;5114406;28;20055;-79
2024/01/20 05:09:06;;;;;;;35.30;13.80;;;;;;;-0.70;100.00;102686.22;5114200;28;20497;-80
2024/01/20 05:11:31;;;;;;;27.80;12.57;;;;;;;-0.72;100.00;102687.81;5115323;28;20061;-80
2024/01/20 05:13:57;;;;;;;26.30;12.57;;;;;;;-0.65;100.00;102692.72;5114353;28;20519;-79
2024/01/20 05:16:22;;;;;;;23.10;10.93;;;;;;;-0.66;100.00;102697.78;5115476;28;20023;-79
2024/01/20 05:18:48;;;;;;;32.72;13.18;;;;;;;-0.72;100.00;102698.19;5114207;28;20031;-82
2024/01/20 05:21:14;;;;;;;34.63;14.50;;;;;;;-0.83;100.00;102686.88;5115480;27;20059;-81
2024/01/20 05:23:40;;;;;;;34.10;14.30;;;;;;;-0.79;100.00;102698.41;5115298;28;20032;-80
2024/01/20 05:26:06;;;;;;;30.60;11.25;;;;;;;-0.84;100.00;102698.03;5113986;28;20461;-80
2024/01/20 05:28:31;;;;;;;28.65;12.63;;;;;;;-0.78;100.00;102703.72;5097090;28;20031;-80
2024/01/20 05:30:57;;;;;;;27.65;12.35;;;;;;;-0.74;100.00;102704.00;5113668;28;20427;-80
2024/01/20 05:33:22;;;;;;;27.02;12.10;;;;;;;-0.94;100.00;102676.31;5113900;28;20038;-80
2024/01/20 05:35:47;;;;;;;31.17;12.35;;;;;;;-0.80;100.00;102714.78;5113681;28;20031;-80
2024/01/20 05:38:13;;;;;;;34.38;12.10;;;;;;;-0.82;100.00;102713.72;5114783;28;20472;-80
2024/01/20 05:40:38;;;;;;;30.20;13.00;;;;;;;-0.80;100.00;102717.38;5115339;28;20036;-80
2024/01/20 05:43:06;;;;;;;28.30;12.80;;;;;;;-0.81;100.00;102721.66;5113784;28;20447;-80
2024/01/20 05:45:32;;;;;;;26.48;12.63;;;;;;;-0.78;100.00;102715.81;5096735;28;20442;-80
2024/01/20 05:47:58;;;;;;;29.02;12.50;;;;;;;-1.01;100.00;102673.22;5113939;28;20032;-80
2024/01/20 05:50:23;;;;;;;31.92;14.13;;;;;;;-0.80;100.00;102709.59;5113535;28;20076;-80
2024/01/20 05:52:50;;;;;;;31.83;13.15;;;;;;;-0.76;100.00;102715.16;5114408;28;20112;-80
2024/01/20 05:55:15;;;;;;;31.73;14.57;;;;;;;-0.94;100.00;102703.22;5113447;28;20061;-80
2024/01/20 05:57:42;;;;;;;26.27;11.95;;;;;;;-0.95;100.00;102698.78;5113463;28;20035;-80
2024/01/20 06:00:09;;;;;;;26.75;11.63;;;;;;;-0.93;100.00;102707.63;5114949;28;20482;-80
2024/01/20 06:02:35;;;;;;;29.17;11.68;;;;;;;-1.01;100.00;102709.53;5114334;28;20051;-80
2024/01/20 06:05:01;;;;;;;28.70;12.45;;;;;;;-0.88;100.00;102733.97;5112596;28;20176;-80
2024/01/20 06:07:26;;;;;;;29.33;12.00;;;;;;;-0.91;100.00;102736.28;5113145;28;20067;-80
2024/01/20 06:09:52;;;;;;;27.52;12.25;;;;;;;-0.92;100.00;102731.88;5113141;28;20535;-80
2024/01/20 06:12:17;;;;;;;31.13;13.73;;;;;;;-0.96;100.00;102737.56;5113075;28;20050;-79
2024/01/20 06:14:43;;;;;;;29.92;13.32;;;;;;;-1.08;100.00;102716.66;5113411;28;20063;-79
2024/01/20 06:17:09;;;;;;;32.45;13.68;;;;;;;-1.12;100.00;102715.47;5114143;28;20039;-80
2024/01/20 06:19:34;;;;;;;26.95;12.43;;;;;;;-0.94;100.00;102741.19;5114090;28;20027;-79
2024/01/20 06:22:00;;;;;;;31.95;13.75;;;;;;;-1.01;100.00;102734.56;5114072;28;20368;-79
2024/01/20 06:24:25;;;;;;;30.50;14.23;;;;;;;-1.11;100.00;102721.59;5112613;28;20098;-80
2024/01/20 06:26:50;;;;;;;23.52;11.73;;;;;;;-1.02;100.00;102743.16;5114038;28;20456;-80
2024/01/20 06:29:16;;;;;;;26.75;11.60;;;;;;;-0.99;100.00;102743.38;5112778;28;20031;-80
2024/01/20 06:31:41;;;;;;;27.33;12.43;;;;;;;-0.99;100.00;102738.19;5112468;28;20035;-80
2024/01/20 06:34:07;;;;;;;26.52;11.40;;;;;;;-0.95;100.00;102741.97;5112299;28;20063;-80
2024/01/20 06:36:32;;;;;;;25.40;11.10;;;;;;;-0.95;100.00;102740.28;5113582;28;20036;-79
2024/01/20 06:38:57;;;;;;;33.38;12.40;;;;;;;-1.29;100.00;102681.94;5114113;28;20024;-80
2024/01/20 06:41:23;;;;;;;24.75;11.82;;;;;;;-0.90;100.00;102745.88;5113794;28;20428;-79
2024/01/20 06:43:48;;;;;;;27.98;11.73;;;;;;;-0.84;100.00;102757.72;5095121;28;20059;-79
2024/01/20 06:46:14;;;;;;;26.65;12.00;;;;;;;-0.89;100.00;102750.31;5112423;28;20122;-80
2024/01/20 06:48:39;;;;;;;23.63;11.55;;;;;;;-0.84;100.00;102762.00;5113743;28;20032;-81
2024/01/20 06:51:04;;;;;;;25.85;12.27;;;;;;;-1.04;100.00;102750.78;5113755;28;20393;-81
2024/01/20 06:53:31;;;;;;;27.42;12.70;;;;;;;-1.00;100.00;102762.34;5112255;28;20042;-80
2024/01/20 06:55:57;;;;;;;29.45;12.13;;;;;;;-1.02;100.00;102769.09;5113633;28;20039;-81
2024/01/20 06:58:23;;;;;;;29.08;11.50;;;;;;;-1.11;100.00;102750.13;5112303;28;20038;-81
2024/01/20 07:00:49;;;;;;;29.55;11.88;;;;;;;-0.92;100.00;102778.59;5111933;28;20085;-79
2024/01/20 07:03:15;;;;;;;28.60;13.95;;;;;;;-1.10;100.00;102755.44;5112219;28;20059;-79
2024/01/20 07:05:41;;;;;;;29.13;13.30;;;;;;;-1.07;100.00;102763.50;5113634;28;20056;-80
2024/01/20 07:08:06;;;;;;;27.60;13.88;;;;;;;-1.04;100.00;102773.22;5112061;28;20032;-81
2024/01/20 07:10:31;;;;;;;22.85;11.45;;;;;;;-1.43;100.00;102693.72;5113473;28;20028;-81
2024/01/20 07:12:57;;;;;;;29.38;13.30;;;;;;;-1.06;100.00;102769.59;5111861;28;20035;-82
2024/01/20 07:15:22;;;;;;;28.40;11.70;;;;;;;-0.97;100.00;102780.78;5112052;28;20117;-82
2024/01/20 07:17:48;;;;;;;24.25;11.65;;;;;;;-1.07;100.00;102765.16;5112260;28;20047;-81
2024/01/20 07:20:13;;;;;;;25.55;12.10;;;;;;;-1.13;100.00;102749.06;5113409;28;20441;-82
2024/01/20 07:22:39;;;;;;;25.77;12.13;;;;;;;-1.12;100.00;102762.16;5111958;28;20478;-82
2024/01/20 07:25:05;;;;;;;30.23;13.93;;;;;;;-1.25;100.00;102743.69;5095050;28;20555;-81
2024/01/20 07:27:30;;;;;;;28.58;12.80;;;;;;;-1.29;100.00;102747.69;5113399;28;20454;-81
2024/01/20 07:29:56;;;;;;;28.00;13.60;;;;;;;-1.12;100.00;102776.81;5113241;28;20071;-82
2024/01/20 07:32:21;;;;;;;32.75;16.38;;;;;;;-1.12;100.00;102779.41;5113262;28;20032;-81
2024/01/20 07:34:47;;;;;;;30.40;14.75;;;;;;;-1.51;100.00;102715.44;5113229;28;20039;-81
2024/01/20 07:37:12;;;;;;;32.53;14.02;;;;;;;-1.22;100.00;102772.50;5113121;28;20042;-81
2024/01/20 07:39:37;;;;;;;27.35;13.73;;;;;;;-1.31;100.00;102758.72;5113481;28;20429;-82
2024/01/20 07:42:03;;;;;;;29.23;13.10;;;;;;;-1.16;100.00;102785.09;5113400;28;20028;-81
2024/01/20 07:44:29;;;;;;;27.25;11.70;;;;;;;-1.28;100.00;102754.72;5112890;28;20675;-80
2024/01/20 07:46:54;;;;;;;33.75;15.70;;;;;;;-1.19;100.00;102782.25;5115121;28;20079;-81
2024/01/20 07:49:19;;;;;;;27.52;13.15;;;;;;;-1.14;100.00;102788.75;5116686;28;20036;-81
2024/01/20 07:51:45;;;;;;;30.75;12.88;;;;;;;-1.53;100.00;102717.00;5116048;28;20027;-81
2024/01/20 07:54:12;;;;;;;27.67;12.63;;;;;;;-1.08;100.00;102785.00;5115382;28;20368;-81
2024/01/20 07:56:37;;;;;;;27.13;12.57;;;;;;;-1.08;100.00;102782.41;5116057;28;20403;-80
2024/01/20 07:59:03;;;;;;;30.65;15.10;;;;;;;-1.07;100.00;102796.28;5116289;28;20024;-81
2024/01/20 08:01:28;;;;;;;26.55;12.55;;;;;;;-1.26;100.00;102775.59;5114930;28;20027;-82
2024/01/20 08:03:54;;;;;;;29.73;16.02;;;;;;;-1.07;100.00;102809.25;5115055;28;20038;-82
2024/01/20 08:06:19;;;;;;;31.40;14.13;;;;;;;-1.27;100.00;102776.38;5115950;28;20063;-81
2024/01/20 08:08:44;;;;;;;27.35;13.07;;;;;;;-1.14;100.00;102791.34;5116137;28;20032;-82
2024/01/20 08:11:12;;;;;;;26.27;13.35;;;;;;;-1.41;100.00;102758.66;5116352;28;20080;-81
2024/01/20 08:13:37;;;;;;;28.25;12.18;;;;;;;-1.24;100.00;102786.09;5115989;28;20028;-82
2024/01/20 08:16:03;;;;;;;29.73;13.55;;;;;;;-1.12;100.00;102802.75;5115744;28;20384;-80
2024/01/20 08:18:29;;;;;;;28.38;13.18;;;;;;;-1.18;100.00;102795.34;5115750;28;20032;-81
2024/01/20 08:20:54;;;;;;;28.17;13.05;;;;;;;-1.19;100.00;102788.34;5114819;28;20118;-81
2024/01/20 08:23:19;;;;;;;26.88;12.98;;;;;;;-1.11;100.00;102805.50;5116081;28;20045;-82
2024/01/20 08:25:45;;;;;;;28.77;12.18;;;;;;;-1.05;100.00;102812.91;5115967;28;20036;-85
2024/01/20 08:28:10;;;;;;;29.33;13.48;;;;;;;-1.10;100.00;102817.69;5116040;28;20141;-80
2024/01/20 08:30:36;;;;;;;27.58;12.45;;;;;;;-1.14;100.00;102810.41;5115611;27;20035;-84
2024/01/20 08:33:01;;;;;;;33.08;13.27;;;;;;;-1.27;100.00;102784.16;5080690;28;20533;-85
2024/01/20 08:35:27;;;;;;;31.30;13.60;;;;;;;-1.08;100.00;102808.34;5097355;28;20076;-83
2024/01/20 08:37:52;;;;;;;28.60;13.07;;;;;;;-0.99;100.00;102826.41;5097733;28;20077;-81
2024/01/20 08:40:18;;;;;;;29.98;14.95;;;;;;;-0.98;100.00;102819.56;5115668;28;20038;-82
2024/01/20 08:42:43;;;;;;;30.38;13.07;;;;;;;-1.01;100.00;102825.38;5115301;28;20055;-82
2024/01/20 08:45:09;;;;;;;30.90;13.52;;;;;;;-1.14;100.00;102807.81;5113973;28;20035;-81
2024/01/20 08:47:34;;;;;;;27.33;12.70;;;;;;;-1.10;100.00;102809.00;5115074;28;20035;-80
2024/01/20 08:49:59;;;;;;;31.75;13.15;;;;;;;-1.06;100.00;102824.97;5114036;28;20082;-83
2024/01/20 08:52:25;;;;;;;28.60;13.15;;;;;;;-0.98;100.00;102842.91;5114218;28;20031;-83
2024/01/20 08:54:50;;;;;;;27.98;15.05;;;;;;;-1.06;100.00;102816.28;5114120;28;20105;-82
2024/01/20 08:57:16;;;;;;;23.08;10.57;;;;;;;-1.04;100.00;102827.69;5113501;28;20176;-83
2024/01/20 08:59:41;;;;;;;29.98;13.95;;;;;;;-0.97;100.00;102837.84;5113819;28;20027;-83
2024/01/20 09:02:06;;;;;;;29.90;13.50;;;;;;;-1.04;100.00;102833.78;5115051;28;20032;-83
2024/01/20 09:04:32;;;;;;;27.23;11.93;;;;;;;-1.05;100.00;102820.69;5115241;28;20032;-83
2024/01/20 09:06:57;;;;;;;26.10;12.75;;;;;;;-1.20;100.00;102793.38;5115329;28;20075;-83
2024/01/20 09:09:23;;;;;;;28.15;13.35;;;;;;;-0.91;100.00;102840.97;5113861;28;20399;-80
2024/01/20 09:11:48;;;;;;;29.92;13.68;;;;;;;-0.87;100.00;102847.34;5114151;28;20035;-80
2024/01/20 09:14:14;;;;;;;37.17;16.75;;;;;;;-1.02;100.00;102824.47;5096522;28;20055;-80
2024/01/20 09:16:39;;;;;;;33.15;14.63;;;;;;;-0.88;100.00;102846.44;5116105;28;20081;-81
2024/01/20 09:19:05;;;;;;;29.58;13.75;;;;;;;-0.93;100.00;102850.34;5116345;28;20051;-82
2024/01/20 09:21:30;;;;;;;36.00;17.08;;;;;;;-0.95;100.00;102850.97;5098626;28;20491;-81
2024/01/20 09:23:56;;;;;;;31.05;13.25;;;;;;;-0.97;100.00;102856.03;5116596;28;20039;-82
2024/01/20 09:26:21;;;;;;;29.25;14.10;;;;;;;-1.09;100.00;102831.56;5116729;28;20055;-82
2024/01/20 09:28:46;;;;;;;33.97;14.63;;;;;;;-1.04;100.00;102841.56;5116677;28;20404;-82
2024/01/20 09:31:14;;;;;;;27.52;14.30;;;;;;;-1.01;100.00;102862.63;5099214;28;20029;-82
2024/01/20 09:33:42;;;;;;;33.08;14.07;;;;;;;-0.99;100.00;102856.63;5093463;28;20063;-79
2024/01/20 09:36:07;;;;;;;31.77;14.60;;;;;;;-1.01;100.00;102854.84;5094692;28;20067;-83
2024/01/20 09:38:32;;;;;;;25.08;12.77;;;;;;;-1.15;100.00;102825.84;5094536;28;20534;-81
2024/01/20 09:40:58;;;;;;;31.77;14.20;;;;;;;-1.02;100.00;102852.09;5094077;28;20040;-84
2024/01/20 09:43:25;;;;;;;26.15;12.10;;;;;;;-0.96;100.00;102852.66;5093136;28;20039;-84
2024/01/20 09:45:54;;;;;;;33.30;15.60;;;;;;;-0.97;100.00;102849.94;5075405;28;20032;-85
2024/01/20 09:48:20;;;;;;;27.13;12.25;;;;;;;-0.95;100.00;102858.75;5092777;28;20032;-84
2024/01/20 09:50:45;;;;;;;29.20;13.68;;;;;;;-1.05;100.00;102857.91;5093526;28;20081;-83
2024/01/20 09:53:14;;;;;;;26.15;12.90;;;;;;;-0.98;100.00;102867.19;5102310;28;20032;-82
2024/01/20 09:55:41;;;;;;;24.27;11.60;;;;;;;-0.96;100.00;102873.41;5112495;28;20434;-84
2024/01/20 09:58:10;;;;;;;28.33;12.98;;;;;;;-0.94;100.00;102879.66;5112769;28;20471;-83
2024/01/20 10:00:36;;;;;;;25.35;11.60;;;;;;;-0.90;100.00;102880.81;5113218;28;20164;-81
2024/01/20 10:03:05;;;;;;;30.95;13.43;;;;;;;-0.87;100.00;102883.69;5114601;28;20031;-86
2024/01/20 10:05:31;;;;;;;24.92;12.40;;;;;;;-0.83;100.00;102876.31;5111695;28;20127;-86
2024/01/20 10:07:57;;;;;;;28.90;12.25;;;;;;;-0.98;100.00;102846.44;5111945;28;20033;-91
2024/01/20 10:10:25;;;;;;;31.92;14.25;;;;;;;-0.85;100.00;102869.19;5112814;28;20032;-86
2024/01/20 10:12:53;;;;;;;30.90;15.18;;;;;;;-0.87;100.00;102868.13;5114267;28;20032;-84
2024/01/20 10:15:26;;;;;;;28.83;13.90;;;;;;;-0.79;100.00;102874.91;5113475;28;20387;-90
2024/01/20 10:17:52;;;;;;;30.13;14.40;;;;;;;-0.86;100.00;102859.56;5112689;28;20081;-92
2024/01/20 10:20:33;;;;;;;32.95;15.15;;;;;;;-0.76;100.00;102868.31;5114011;28;20024;-88
2024/01/20 10:23:03;;;;;;;29.85;13.55;;;;;;;-0.69;100.00;102876.63;5114197;28;20066;-87
2024/01/20 10:25:29;;;;;;;35.92;14.75;;;;;;;-0.72;100.00;102873.78;5112355;28;20024;-85
2024/01/20 10:28:07;;;;;;;31.77;14.50;;;;;;;-0.63;100.00;102879.78;5112847;28;20034;-91
2024/01/20 10:31:08;;;;;;;;;;;;;;;;;;;;;
2024/01/20 10:33:45;;;;;;;28.70;12.73;;;;;;;-1.13;100.00;102803.53;5015473;28;20052;-96
2024/01/20 10:36:26;;;;;;;;;;;;;;;;;;;;;
2024/01/20 10:39:04;;;;;;;26.10;12.52;;;;;;;-1.04;100.00;102802.66;5013332;28;20021;-88
2024/01/20 10:41:32;;;;;;;30.45;12.93;;;;;;;-0.56;100.00;102874.34;5013259;28;20104;-90
2024/01/20 10:44:02;;;;;;;27.88;13.32;;;;;;;-0.57;100.00;102860.44;5012954;28;20553;-89
2024/01/20 10:46:34;;;;;;;29.02;12.80;;;;;;;-0.49;100.00;102848.16;4995104;28;20430;-90
2024/01/20 10:49:04;;;;;;;23.83;11.95;;;;;;;-0.42;100.00;102853.09;4980386;28;20065;-89
2024/01/20 10:51:30;;;;;;;31.77;13.82;;;;;;;-0.39;100.00;102862.81;5013495;28;20033;-90
2024/01/20 10:53:56;;;;;;;28.30;12.35;;;;;;;-0.40;100.00;102861.03;4996132;28;20034;-90
2024/01/20 10:56:24;;;;;;;29.00;13.82;;;;;;;-0.38;100.00;102872.47;4997283;28;20033;-89
2024/01/20 10:59:11;;;;;;;29.15;13.38;;;;;;;-0.36;100.00;102874.41;4981327;28;20038;-89